createdAt,value
2023-01-26T00:01:22.590Z,94.30
2023-01-26T00:03:51.414Z,94.30
2023-01-26T00:06:20.839Z,94.40
2023-01-26T00:08:51.101Z,94.50
2023-01-26T00:11:20.876Z,94.70
2023-01-26T00:13:50.929Z,94.30
2023-01-26T00:16:18.724Z,94.10
2023-01-26T00:18:46.667Z,94.20
2023-01-26T00:21:19.315Z,94.40
2023-01-26T00:23:48.216Z,94.40
2023-01-26T00:26:18.917Z,94.80
2023-01-26T00:28:47.055Z,94.30
2023-01-26T00:31:21.052Z,94.30
2023-01-26T00:33:48.432Z,94.40
2023-01-26T00:36:15.893Z,94.60
2023-01-26T00:38:43.841Z,94.50
2023-01-26T00:41:31.303Z,94.60
2023-01-26T00:43:58.858Z,94.40
2023-01-26T00:46:26.657Z,94.30
2023-01-26T00:48:54.320Z,94.40
2023-01-26T00:51:21.688Z,94.50
2023-01-26T00:53:48.909Z,94.50
2023-01-26T00:56:16.296Z,94.50
2023-01-26T00:58:45.472Z,94.60
2023-01-26T01:01:13.313Z,94.60
2023-01-26T01:03:42.941Z,94.50
2023-01-26T01:06:10.424Z,94.50
2023-01-26T01:08:37.854Z,94.50
2023-01-26T01:11:11.508Z,94.70
2023-01-26T01:13:39.444Z,94.70
2023-01-26T01:16:08.960Z,94.70
2023-01-26T01:18:37.246Z,94.70
2023-01-26T01:21:12.760Z,94.80
2023-01-26T01:23:40.760Z,94.80
2023-01-26T01:26:09.519Z,94.70
2023-01-26T01:28:37.404Z,94.60
2023-01-26T01:31:11.137Z,94.60
2023-01-26T01:33:38.876Z,94.50
2023-01-26T01:36:09.291Z,94.60
2023-01-26T01:38:36.754Z,94.70
2023-01-26T01:41:04.652Z,94.70
2023-01-26T01:43:31.978Z,94.70
2023-01-26T01:46:01.533Z,94.90
2023-01-26T01:48:34.593Z,95.10
2023-01-26T01:51:12.789Z,94.90
2023-01-26T01:53:45.904Z,94.80
2023-01-26T01:56:21.938Z,95.00
2023-01-26T01:58:53.845Z,95.00
2023-01-26T02:01:21.327Z,94.90
2023-01-26T02:03:51.277Z,95.00
2023-01-26T02:06:28.353Z,95.10
2023-01-26T02:08:57.066Z,94.90
2023-01-26T02:11:32.894Z,94.90
2023-01-26T02:14:06.147Z,94.80
2023-01-26T02:16:33.926Z,94.70
2023-01-26T02:19:01.870Z,94.60
2023-01-26T02:21:31.314Z,94.70
2023-01-26T02:24:08.011Z,94.60
2023-01-26T02:26:37.536Z,94.50
2023-01-26T02:29:08.794Z,94.40
2023-01-26T02:31:42.125Z,94.40
2023-01-26T02:34:09.585Z,94.40
2023-01-26T02:36:37.796Z,94.20
2023-01-26T02:39:38.103Z,94.30
2023-01-26T02:42:24.372Z,94.30
2023-01-26T02:44:51.965Z,94.20
2023-01-26T02:47:20.096Z,94.20
2023-01-26T02:49:50.476Z,94.30
2023-01-26T02:52:28.398Z,94.30
2023-01-26T02:55:22.385Z,94.40
2023-01-26T02:57:51.929Z,94.30
2023-01-26T03:00:37.362Z,94.30
2023-01-26T03:03:15.287Z,94.30
2023-01-26T03:05:43.244Z,94.20
2023-01-26T03:08:10.753Z,94.20
2023-01-26T03:10:39.054Z,94.20
2023-01-26T03:13:07.126Z,94.30
2023-01-26T03:15:43.721Z,94.30
2023-01-26T03:18:34.003Z,94.30
2023-01-26T03:21:32.488Z,94.30
2023-01-26T03:24:19.537Z,94.30
2023-01-26T03:27:07.154Z,94.20
2023-01-26T03:29:34.918Z,94.20
2023-01-26T03:32:03.745Z,94.10
2023-01-26T03:34:31.792Z,94.20
2023-01-26T03:36:59.840Z,94.20
2023-01-26T03:39:51.204Z,94.20
2023-01-26T03:42:37.104Z,94.20
2023-01-26T03:45:24.372Z,94.30
2023-01-26T03:48:10.859Z,94.40
2023-01-26T03:50:56.665Z,94.30
2023-01-26T03:53:43.603Z,94.30
2023-01-26T03:56:19.014Z,94.30
2023-01-26T03:59:08.148Z,94.20
2023-01-26T04:01:37.568Z,94.20
2023-01-26T04:04:25.675Z,94.30
2023-01-26T04:07:11.681Z,94.30
2023-01-26T04:09:44.971Z,94.30
2023-01-26T04:12:14.098Z,94.20
2023-01-26T04:15:12.682Z,94.20
2023-01-26T04:17:59.022Z,94.10
2023-01-26T04:20:45.818Z,94.10
2023-01-26T04:23:20.236Z,94.10
2023-01-26T04:25:48.975Z,94.10
2023-01-26T04:28:16.642Z,94.10
2023-01-26T04:30:44.999Z,94.10
2023-01-26T04:33:12.448Z,94.10
2023-01-26T04:35:40.298Z,94.20
2023-01-26T04:38:08.054Z,94.20
2023-01-26T04:40:35.848Z,94.10
2023-01-26T04:43:04.469Z,94.10
2023-01-26T04:45:32.464Z,94.10
2023-01-26T04:48:00.048Z,94.10
2023-01-26T04:50:27.763Z,94.20
2023-01-26T04:52:55.297Z,94.20
2023-01-26T04:55:22.827Z,94.20
2023-01-26T04:57:50.119Z,94.20
2023-01-26T05:00:18.038Z,94.20
2023-01-26T05:02:45.498Z,94.20
2023-01-26T05:05:12.992Z,94.10
2023-01-26T05:07:40.293Z,94.20
2023-01-26T05:10:08.655Z,94.10
2023-01-26T05:12:59.538Z,94.10
2023-01-26T05:15:34.855Z,94.00
2023-01-26T05:18:15.536Z,94.10
2023-01-26T05:21:00.791Z,94.20
2023-01-26T05:23:33.222Z,94.50
2023-01-26T05:26:13.109Z,94.30
2023-01-26T05:29:03.594Z,94.20
2023-01-26T05:31:32.257Z,94.10
2023-01-26T05:33:59.594Z,94.00
2023-01-26T05:36:27.102Z,94.00
2023-01-26T05:38:54.610Z,94.00
2023-01-26T05:41:25.621Z,94.10
2023-01-26T05:44:07.661Z,94.20
2023-01-26T05:46:49.191Z,94.20
2023-01-26T05:49:16.894Z,94.30
2023-01-26T05:51:44.246Z,94.20
2023-01-26T05:54:12.071Z,94.30
2023-01-26T05:56:40.722Z,94.30
2023-01-26T05:59:08.766Z,94.30
2023-01-26T06:01:36.483Z,94.40
2023-01-26T06:04:07.369Z,94.30
2023-01-26T06:06:44.041Z,94.30
2023-01-26T06:09:31.690Z,94.20
2023-01-26T06:12:18.670Z,94.30
2023-01-26T06:15:07.743Z,94.30
2023-01-26T06:17:42.329Z,94.30
2023-01-26T06:20:14.696Z,94.30
2023-01-26T06:22:45.641Z,94.40
2023-01-26T06:25:13.205Z,94.50
2023-01-26T06:27:42.566Z,94.50
2023-01-26T06:30:24.474Z,94.40
2023-01-26T06:32:52.657Z,94.50
2023-01-26T06:35:20.353Z,94.90
2023-01-26T06:37:50.312Z,94.80
2023-01-26T06:40:19.304Z,94.70
2023-01-26T06:42:50.302Z,94.70
2023-01-26T06:45:20.767Z,94.90
2023-01-26T06:47:52.564Z,94.90
2023-01-26T06:50:25.256Z,95.00
2023-01-26T06:52:56.272Z,95.00
2023-01-26T06:55:39.003Z,94.90
2023-01-26T06:58:28.868Z,94.90
2023-01-26T07:01:20.283Z,94.90
2023-01-26T07:03:52.999Z,95.00
2023-01-26T07:06:21.021Z,95.00
2023-01-26T07:08:48.294Z,95.00
2023-01-26T07:11:16.889Z,95.00
2023-01-26T07:13:44.513Z,94.90
2023-01-26T07:16:13.854Z,94.80
2023-01-26T07:18:41.559Z,94.70
2023-01-26T07:21:15.307Z,94.60
2023-01-26T07:23:42.739Z,94.70
2023-01-26T07:26:10.489Z,94.70
2023-01-26T07:28:40.091Z,94.90
2023-01-26T07:31:08.569Z,94.70
2023-01-26T07:33:36.075Z,94.60
2023-01-26T07:36:04.252Z,94.70
2023-01-26T07:38:33.397Z,94.80
2023-01-26T07:41:06.832Z,94.70
2023-01-26T07:43:35.823Z,94.50
2023-01-26T07:46:03.502Z,94.50
2023-01-26T07:48:31.264Z,94.50
2023-01-26T07:51:00.902Z,94.70
2023-01-26T07:53:30.414Z,94.70
2023-01-26T07:56:13.136Z,94.70
2023-01-26T07:58:40.999Z,94.80
2023-01-26T08:01:13.502Z,94.90
2023-01-26T08:03:41.948Z,94.50
2023-01-26T08:06:11.884Z,94.50
2023-01-26T08:08:41.308Z,94.50
2023-01-26T08:11:10.857Z,94.50
2023-01-26T08:13:39.291Z,94.60
2023-01-26T08:16:12.703Z,94.60
2023-01-26T08:18:42.048Z,94.40
2023-01-26T08:21:10.953Z,94.40
2023-01-26T08:23:38.559Z,94.40
2023-01-26T08:26:11.515Z,94.60
2023-01-26T08:28:39.636Z,94.20
2023-01-26T08:31:11.556Z,94.10
2023-01-26T08:33:40.969Z,94.10
2023-01-26T08:36:11.424Z,94.10
2023-01-26T08:38:38.801Z,93.90
2023-01-26T08:41:07.165Z,93.90
2023-01-26T08:43:35.379Z,93.90
2023-01-26T08:46:03.345Z,93.90
2023-01-26T08:48:32.091Z,93.90
2023-01-26T08:51:02.053Z,93.50
2023-01-26T08:53:34.218Z,93.40
2023-01-26T08:56:02.897Z,93.50
2023-01-26T08:58:30.368Z,93.50
2023-01-26T09:00:57.783Z,93.50
2023-01-26T09:03:25.301Z,93.50
2023-01-26T09:05:52.538Z,93.50
2023-01-26T09:08:19.981Z,93.50
2023-01-26T09:10:48.325Z,93.30
2023-01-26T09:13:15.633Z,93.30
2023-01-26T09:15:42.916Z,93.10
2023-01-26T09:18:11.518Z,92.90
2023-01-26T09:20:39.688Z,93.00
2023-01-26T09:23:07.427Z,92.80
2023-01-26T09:25:38.806Z,93.00
2023-01-26T09:28:06.465Z,93.00
2023-01-26T09:30:34.090Z,93.00
2023-01-26T09:33:03.611Z,92.90
2023-01-26T09:35:31.511Z,92.90
2023-01-26T09:37:58.843Z,92.60
2023-01-26T09:40:36.382Z,92.50
2023-01-26T09:43:43.496Z,92.50
2023-01-26T09:46:42.505Z,92.50
2023-01-26T09:49:23.588Z,92.40
2023-01-26T09:52:10.491Z,92.20
2023-01-26T09:54:46.153Z,92.10
2023-01-26T09:57:25.275Z,92.30
2023-01-26T09:59:52.492Z,92.40
2023-01-26T10:02:35.171Z,92.10
2023-01-26T10:05:12.018Z,92.00
2023-01-26T10:07:39.428Z,91.90
2023-01-26T10:10:07.152Z,92.00
2023-01-26T10:12:38.233Z,91.90
2023-01-26T10:15:08.541Z,91.40
2023-01-26T10:17:40.990Z,91.40
2023-01-26T10:20:27.644Z,91.40
2023-01-26T10:23:04.305Z,91.30
2023-01-26T10:25:40.947Z,91.20
2023-01-26T10:28:35.161Z,91.20
2023-01-26T10:31:05.338Z,91.50
2023-01-26T10:33:34.102Z,91.50
2023-01-26T10:36:03.835Z,91.50
2023-01-26T10:38:34.150Z,91.50
2023-01-26T10:41:14.929Z,91.50
2023-01-26T10:43:50.234Z,91.30
2023-01-26T10:46:23.920Z,91.50
2023-01-26T10:48:56.942Z,91.50
2023-01-26T10:51:30.451Z,91.50
2023-01-26T10:54:22.742Z,91.30
2023-01-26T10:56:57.289Z,91.10
2023-01-26T10:59:29.693Z,91.10
2023-01-26T11:02:00.699Z,91.10
2023-01-26T11:04:29.276Z,91.00
2023-01-26T11:07:14.291Z,91.10
2023-01-26T11:09:41.715Z,91.20
2023-01-26T11:12:18.268Z,91.20
2023-01-26T11:15:04.783Z,91.20
2023-01-26T11:17:56.565Z,91.00
2023-01-26T11:20:42.986Z,91.00
2023-01-26T11:23:48.882Z,90.90
2023-01-26T11:26:45.009Z,91.00
2023-01-26T11:29:36.956Z,90.90
2023-01-26T11:32:27.262Z,91.00
2023-01-26T11:35:16.309Z,90.90
2023-01-26T11:38:05.031Z,91.00
2023-01-26T11:40:41.583Z,91.00
2023-01-26T11:43:14.969Z,90.90
2023-01-26T11:46:01.773Z,90.90
2023-01-26T11:48:31.909Z,90.80
2023-01-26T11:51:14.492Z,90.40
2023-01-26T11:53:56.076Z,90.60
2023-01-26T11:56:56.698Z,90.40
2023-01-26T11:59:39.029Z,90.50
2023-01-26T12:02:36.383Z,90.70
2023-01-26T12:05:24.131Z,90.30
2023-01-26T12:08:11.814Z,90.10
2023-01-26T12:10:58.236Z,90.10
2023-01-26T12:13:43.759Z,89.90
2023-01-26T12:16:21.284Z,89.30
2023-01-26T12:19:10.627Z,89.60
2023-01-26T12:21:44.782Z,89.20
2023-01-26T12:24:58.225Z,88.80
2023-01-26T12:27:24.911Z,89.00
2023-01-26T12:30:12.391Z,89.40
2023-01-26T12:32:40.405Z,89.00
2023-01-26T12:35:12.428Z,88.90
2023-01-26T12:37:49.722Z,89.30
2023-01-26T12:40:28.660Z,89.40
2023-01-26T12:43:46.187Z,89.50
2023-01-26T12:46:14.535Z,89.60
2023-01-26T12:48:54.208Z,89.90
2023-01-26T12:51:30.024Z,90.10
2023-01-26T12:54:02.936Z,90.10
2023-01-26T12:56:50.536Z,90.40
2023-01-26T12:59:28.420Z,90.20
2023-01-26T13:02:34.292Z,90.00
2023-01-26T13:05:03.207Z,90.00
2023-01-26T13:07:36.805Z,90.20
2023-01-26T13:10:19.477Z,90.20
2023-01-26T13:12:58.078Z,90.30
2023-01-26T13:15:31.250Z,90.20
2023-01-26T13:18:05.913Z,90.20
2023-01-26T13:20:49.497Z,90.20
2023-01-26T13:23:29.011Z,90.00
2023-01-26T13:26:42.621Z,90.10
2023-01-26T13:29:32.775Z,90.20
2023-01-26T13:32:23.536Z,90.10
2023-01-26T13:35:00.016Z,89.80
2023-01-26T13:37:52.308Z,90.00
2023-01-26T13:40:32.315Z,90.10
2023-01-26T13:43:27.210Z,90.30
2023-01-26T13:46:14.285Z,90.10
2023-01-26T13:48:47.970Z,90.10
2023-01-26T13:51:27.756Z,90.10
2023-01-26T13:53:58.028Z,90.00
2023-01-26T13:56:28.578Z,90.00
2023-01-26T13:59:14.322Z,90.00
2023-01-26T14:01:54.508Z,89.90
2023-01-26T14:04:28.014Z,90.00
2023-01-26T14:07:06.756Z,90.20
2023-01-26T14:09:45.348Z,90.70
2023-01-26T14:12:52.484Z,90.60
2023-01-26T14:15:25.657Z,90.80
2023-01-26T14:18:01.331Z,90.80
2023-01-26T14:20:39.430Z,91.00
2023-01-26T14:23:20.784Z,91.30
2023-01-26T14:26:11.902Z,91.60
2023-01-26T14:28:43.132Z,91.70
2023-01-26T14:31:23.365Z,91.80
2023-01-26T14:33:56.062Z,92.00
2023-01-26T14:36:26.111Z,92.30
2023-01-26T14:38:54.913Z,92.50
2023-01-26T14:41:32.115Z,92.50
2023-01-26T14:44:05.987Z,92.50
2023-01-26T14:46:54.898Z,92.50
2023-01-26T14:49:48.330Z,92.60
2023-01-26T14:52:26.866Z,92.60
2023-01-26T14:55:03.241Z,92.70
2023-01-26T14:57:31.525Z,92.60
2023-01-26T15:00:00.958Z,92.60
2023-01-26T15:02:37.419Z,92.60
2023-01-26T15:05:20.741Z,92.70
2023-01-26T15:08:00.033Z,92.80
2023-01-26T15:10:33.548Z,92.80
2023-01-26T15:13:10.047Z,92.90
2023-01-26T15:15:39.868Z,92.90
2023-01-26T15:18:13.124Z,92.70
2023-01-26T15:20:52.838Z,92.50
2023-01-26T15:23:25.773Z,92.60
2023-01-26T15:25:54.024Z,92.70
2023-01-26T15:28:26.029Z,92.80
2023-01-26T15:30:56.218Z,92.80
2023-01-26T15:33:52.986Z,92.90
2023-01-26T15:36:29.738Z,92.80
2023-01-26T15:39:20.477Z,92.90
2023-01-26T15:42:05.258Z,93.20
2023-01-26T15:44:32.704Z,92.80
2023-01-26T15:47:00.071Z,93.10
2023-01-26T15:49:27.343Z,92.70
2023-01-26T15:51:55.015Z,92.80
2023-01-26T15:54:22.466Z,92.90
2023-01-26T15:56:50.562Z,93.00
2023-01-26T15:59:17.920Z,93.00
2023-01-26T16:01:45.296Z,93.10
2023-01-26T16:04:15.614Z,93.00
2023-01-26T16:06:43.087Z,92.70
2023-01-26T16:09:10.556Z,92.80
2023-01-26T16:11:44.046Z,93.00
2023-01-26T16:14:14.317Z,93.10
2023-01-26T16:16:41.745Z,93.20
2023-01-26T16:19:09.275Z,93.00
2023-01-26T16:21:41.296Z,93.10
2023-01-26T16:24:10.717Z,93.40
2023-01-26T16:26:38.318Z,93.50
2023-01-26T16:29:05.741Z,93.50
2023-01-26T16:31:36.258Z,93.50
2023-01-26T16:34:04.470Z,93.50
2023-01-26T16:36:31.748Z,93.50
2023-01-26T16:38:58.999Z,93.50
2023-01-26T16:41:29.268Z,93.60
2023-01-26T16:43:59.129Z,93.70
2023-01-26T16:46:28.349Z,93.70
2023-01-26T16:48:56.586Z,93.80
2023-01-26T16:51:32.488Z,93.70
2023-01-26T16:53:59.776Z,93.70
2023-01-26T16:56:28.788Z,93.70
2023-01-26T16:58:56.285Z,93.80
2023-01-26T17:01:28.433Z,93.80
2023-01-26T17:03:56.169Z,93.90
2023-01-26T17:06:23.592Z,93.90
2023-01-26T17:08:51.100Z,94.00
2023-01-26T17:11:26.102Z,94.10
2023-01-26T17:13:56.240Z,94.10
2023-01-26T17:16:27.240Z,93.90
2023-01-26T17:18:54.604Z,94.00
2023-01-26T17:21:23.080Z,94.30
2023-01-26T17:23:52.470Z,94.10
2023-01-26T17:26:20.720Z,94.10
2023-01-26T17:28:50.248Z,94.30
2023-01-26T17:31:22.562Z,94.30
2023-01-26T17:33:51.641Z,94.30
2023-01-26T17:36:20.964Z,94.40
2023-01-26T17:38:52.317Z,94.40
2023-01-26T17:41:19.890Z,94.40
2023-01-26T17:43:48.214Z,94.40
2023-01-26T17:46:19.766Z,94.60
2023-01-26T17:48:49.880Z,94.40
2023-01-26T17:51:21.784Z,94.40
2023-01-26T17:53:50.057Z,94.50
2023-01-26T17:56:20.074Z,94.60
2023-01-26T17:58:54.036Z,94.70
2023-01-26T18:01:23.860Z,94.80
2023-01-26T18:03:53.480Z,95.00
2023-01-26T18:06:21.616Z,94.90
2023-01-26T18:08:49.191Z,94.90
2023-01-26T18:11:17.010Z,95.00
2023-01-26T18:13:44.866Z,95.20
2023-01-26T18:16:17.288Z,95.20
2023-01-26T18:18:44.729Z,95.40
2023-01-26T18:21:13.311Z,95.40
2023-01-26T18:23:43.489Z,95.50
2023-01-26T18:26:10.725Z,95.30
2023-01-26T18:28:43.094Z,95.40
2023-01-26T18:31:32.145Z,95.40
2023-01-26T18:34:05.714Z,95.00
2023-01-26T18:36:33.579Z,95.00
2023-01-26T18:39:04.823Z,94.90
2023-01-26T18:41:33.019Z,94.70
2023-01-26T18:44:03.011Z,94.70
2023-01-26T18:46:31.255Z,94.80
2023-01-26T18:49:02.942Z,94.70
2023-01-26T18:51:32.690Z,94.70
2023-01-26T18:54:00.401Z,94.80
2023-01-26T18:56:28.137Z,94.80
2023-01-26T18:58:55.387Z,94.80
2023-01-26T19:01:23.559Z,94.90
2023-01-26T19:03:55.457Z,95.00
2023-01-26T19:06:24.888Z,95.00
2023-01-26T19:08:58.782Z,95.00
2023-01-26T19:11:31.281Z,95.00
2023-01-26T19:13:59.226Z,95.50
2023-01-26T19:16:28.110Z,95.20
2023-01-26T19:18:56.790Z,95.20
2023-01-26T19:21:27.904Z,95.10
2023-01-26T19:23:58.570Z,95.30
2023-01-26T19:26:30.821Z,95.30
2023-01-26T19:28:58.584Z,95.20
2023-01-26T19:31:27.444Z,95.30
2023-01-26T19:33:57.837Z,95.20
2023-01-26T19:36:26.597Z,95.20
2023-01-26T19:38:54.295Z,95.20
2023-01-26T19:41:22.875Z,95.30
2023-01-26T19:43:50.751Z,95.40
2023-01-26T19:46:19.190Z,95.40
2023-01-26T19:48:46.850Z,95.30
2023-01-26T19:51:20.187Z,95.40
2023-01-26T19:53:50.158Z,95.50
2023-01-26T19:56:25.396Z,95.50
2023-01-26T19:58:55.638Z,95.30
2023-01-26T20:01:24.578Z,95.40
2023-01-26T20:03:53.946Z,95.50
2023-01-26T20:06:23.545Z,95.30
2023-01-26T20:08:51.623Z,95.00
2023-01-26T20:11:20.179Z,94.80
2023-01-26T20:13:48.141Z,94.70
2023-01-26T20:16:17.174Z,94.90
2023-01-26T20:18:44.856Z,94.90
2023-01-26T20:21:12.109Z,94.70
2023-01-26T20:23:53.417Z,94.70
2023-01-26T20:26:22.153Z,94.70
2023-01-26T20:28:49.497Z,94.80
2023-01-26T20:31:19.951Z,94.80
2023-01-26T20:33:49.969Z,94.80
2023-01-26T20:36:20.730Z,94.80
2023-01-26T20:38:49.718Z,94.80
2023-01-26T20:41:21.629Z,94.70
2023-01-26T20:43:59.075Z,94.80
2023-01-26T20:46:39.949Z,94.70
2023-01-26T20:49:11.242Z,94.60
2023-01-26T20:51:42.454Z,94.50
2023-01-26T20:54:13.015Z,94.40
2023-01-26T20:56:40.891Z,94.40
2023-01-26T20:59:08.769Z,94.30
2023-01-26T21:01:37.476Z,94.20
2023-01-26T21:04:05.593Z,94.20
2023-01-26T21:06:33.391Z,94.00
2023-01-26T21:09:01.582Z,93.70
2023-01-26T21:11:30.905Z,93.50
2023-01-26T21:14:01.878Z,93.50
2023-01-26T21:16:31.206Z,93.50
2023-01-26T21:18:58.724Z,93.40
2023-01-26T21:21:26.345Z,93.10
2023-01-26T21:23:54.005Z,92.90
2023-01-26T21:26:24.749Z,92.90
2023-01-26T21:28:53.921Z,92.90
2023-01-26T21:31:22.920Z,92.80
2023-01-26T21:33:51.133Z,92.80
2023-01-26T21:36:24.024Z,92.80
2023-01-26T21:38:52.880Z,92.70
2023-01-26T21:41:41.137Z,92.80
2023-01-26T21:44:11.747Z,92.70
2023-01-26T21:46:39.933Z,92.60
2023-01-26T21:49:07.970Z,92.50
2023-01-26T21:51:54.176Z,92.40
2023-01-26T21:54:22.835Z,92.30
2023-01-26T21:56:50.511Z,92.20
2023-01-26T21:59:18.796Z,92.10
2023-01-26T22:01:55.272Z,92.10
2023-01-26T22:04:28.105Z,92.10
2023-01-26T22:06:57.016Z,92.20
2023-01-26T22:09:25.155Z,92.30
2023-01-26T22:11:52.830Z,92.40
2023-01-26T22:14:23.050Z,92.40
2023-01-26T22:16:50.591Z,92.50
2023-01-26T22:19:18.226Z,92.60
2023-01-26T22:21:46.223Z,92.60
2023-01-26T22:24:14.816Z,92.70
2023-01-26T22:26:42.784Z,92.60
2023-01-26T22:29:13.292Z,92.70
2023-01-26T22:31:41.925Z,92.80
2023-01-26T22:34:11.859Z,92.70
2023-01-26T22:36:40.300Z,92.40
2023-01-26T22:39:08.551Z,92.60
2023-01-26T22:41:37.890Z,92.20
2023-01-26T22:44:06.326Z,92.10
2023-01-26T22:46:34.251Z,92.10
2023-01-26T22:49:01.763Z,92.10
2023-01-26T22:51:33.752Z,92.40
2023-01-26T22:54:01.118Z,92.20
2023-01-26T22:56:28.647Z,92.20
2023-01-26T22:59:00.152Z,92.20
2023-01-26T23:01:30.131Z,92.20
2023-01-26T23:03:58.279Z,92.20
2023-01-26T23:06:26.251Z,92.20
2023-01-26T23:08:54.769Z,92.10
2023-01-26T23:11:24.769Z,92.10
2023-01-26T23:13:53.801Z,92.00
2023-01-26T23:16:24.016Z,92.30
2023-01-26T23:18:53.167Z,92.10
2023-01-26T23:21:21.047Z,92.20
2023-01-26T23:23:48.630Z,92.30
2023-01-26T23:26:16.526Z,92.60
2023-01-26T23:28:44.699Z,92.30
2023-01-26T23:31:13.943Z,92.40
2023-01-26T23:33:41.425Z,92.40
2023-01-26T23:36:10.753Z,92.30
2023-01-26T23:38:39.664Z,92.20
2023-01-26T23:41:09.071Z,92.10
2023-01-26T23:43:36.735Z,92.20
2023-01-26T23:46:06.722Z,92.20
2023-01-26T23:48:34.297Z,92.30
2023-01-26T23:51:04.814Z,92.30
2023-01-26T23:53:33.062Z,92.40
2023-01-26T23:56:04.906Z,92.30
2023-01-26T23:58:32.462Z,92.20
